sensor_id;sensor_type;location;lat;lon;timestamp;temperature;humidity
51839;DHT22;37886;53.174;6.368;2023-08-31T00:02:13;11.60;99.90
51839;DHT22;37886;53.174;6.368;2023-08-31T00:04:39;11.60;99.90
51839;DHT22;37886;53.174;6.368;2023-08-31T00:07:05;11.60;99.90
51839;DHT22;37886;53.174;6.368;2023-08-31T00:09:30;11.60;99.90
51839;DHT22;37886;53.174;6.368;2023-08-31T00:11:56;11.50;99.90
51839;DHT22;37886;53.174;6.368;2023-08-31T00:14:23;11.50;99.90
51839;DHT22;37886;53.174;6.368;2023-08-31T00:16:49;11.50;99.90
51839;DHT22;37886;53.174;6.368;2023-08-31T00:19:16;11.60;99.90
51839;DHT22;37886;53.174;6.368;2023-08-31T00:21:42;11.60;99.90
51839;DHT22;37886;53.174;6.368;2023-08-31T00:24:08;11.60;99.90
51839;DHT22;37886;53.174;6.368;2023-08-31T00:26:36;11.50;99.90
51839;DHT22;37886;53.174;6.368;2023-08-31T00:29:06;11.50;99.90
51839;DHT22;37886;53.174;6.368;2023-08-31T00:31:32;11.50;99.90
51839;DHT22;37886;53.174;6.368;2023-08-31T00:33:59;11.50;99.90
51839;DHT22;37886;53.174;6.368;2023-08-31T00:36:28;11.50;99.90
51839;DHT22;37886;53.174;6.368;2023-08-31T00:38:54;11.40;99.90
51839;DHT22;37886;53.174;6.368;2023-08-31T00:41:21;11.40;99.90
51839;DHT22;37886;53.174;6.368;2023-08-31T00:43:47;11.40;99.90
51839;DHT22;37886;53.174;6.368;2023-08-31T00:46:14;11.30;99.90
51839;DHT22;37886;53.174;6.368;2023-08-31T00:48:40;11.20;99.90
51839;DHT22;37886;53.174;6.368;2023-08-31T00:51:07;11.20;99.90
51839;DHT22;37886;53.174;6.368;2023-08-31T00:53:34;11.20;99.90
51839;DHT22;37886;53.174;6.368;2023-08-31T00:56:00;11.20;99.90
51839;DHT22;37886;53.174;6.368;2023-08-31T00:58:26;11.10;99.90
51839;DHT22;37886;53.174;6.368;2023-08-31T01:01:04;11.00;99.90
51839;DHT22;37886;53.174;6.368;2023-08-31T01:06:13;11.00;99.90
51839;DHT22;37886;53.174;6.368;2023-08-31T01:08:46;10.90;99.90
51839;DHT22;37886;53.174;6.368;2023-08-31T01:11:37;10.80;99.90
51839;DHT22;37886;53.174;6.368;2023-08-31T01:14:16;10.70;99.90
51839;DHT22;37886;53.174;6.368;2023-08-31T01:16:48;10.70;99.90
51839;DHT22;37886;53.174;6.368;2023-08-31T01:21:55;10.60;99.90
51839;DHT22;37886;53.174;6.368;2023-08-31T01:24:23;10.60;99.90
51839;DHT22;37886;53.174;6.368;2023-08-31T01:26:51;10.50;99.90
51839;DHT22;37886;53.174;6.368;2023-08-31T01:29:18;10.60;99.90
51839;DHT22;37886;53.174;6.368;2023-08-31T01:31:44;10.60;99.90
51839;DHT22;37886;53.174;6.368;2023-08-31T01:34:13;10.60;99.90
51839;DHT22;37886;53.174;6.368;2023-08-31T01:36:43;10.40;99.90
51839;DHT22;37886;53.174;6.368;2023-08-31T01:41:53;10.50;99.90
51839;DHT22;37886;53.174;6.368;2023-08-31T01:44:21;10.50;99.90
51839;DHT22;37886;53.174;6.368;2023-08-31T01:46:52;10.40;99.90
51839;DHT22;37886;53.174;6.368;2023-08-31T01:49:19;10.40;99.90
51839;DHT22;37886;53.174;6.368;2023-08-31T01:51:44;10.40;99.90
51839;DHT22;37886;53.174;6.368;2023-08-31T01:54:10;10.30;99.90
51839;DHT22;37886;53.174;6.368;2023-08-31T01:56:36;10.40;99.90
51839;DHT22;37886;53.174;6.368;2023-08-31T01:59:01;10.40;99.90
51839;DHT22;37886;53.174;6.368;2023-08-31T02:01:27;10.40;99.90
51839;DHT22;37886;53.174;6.368;2023-08-31T02:03:54;10.40;99.90
51839;DHT22;37886;53.174;6.368;2023-08-31T02:06:20;10.50;99.90
51839;DHT22;37886;53.174;6.368;2023-08-31T02:08:46;10.50;99.90
51839;DHT22;37886;53.174;6.368;2023-08-31T02:11:13;10.50;99.90
51839;DHT22;37886;53.174;6.368;2023-08-31T02:13:39;10.50;99.90
51839;DHT22;37886;53.174;6.368;2023-08-31T02:16:05;10.60;99.90
51839;DHT22;37886;53.174;6.368;2023-08-31T02:18:31;10.60;99.90
51839;DHT22;37886;53.174;6.368;2023-08-31T02:20:56;10.60;99.90
51839;DHT22;37886;53.174;6.368;2023-08-31T02:23:23;10.60;99.90
51839;DHT22;37886;53.174;6.368;2023-08-31T02:25:48;10.60;99.90
51839;DHT22;37886;53.174;6.368;2023-08-31T02:28:14;10.60;99.90
51839;DHT22;37886;53.174;6.368;2023-08-31T02:30:44;10.60;99.90
51839;DHT22;37886;53.174;6.368;2023-08-31T02:33:09;10.60;99.90
51839;DHT22;37886;53.174;6.368;2023-08-31T02:35:35;10.60;99.90
51839;DHT22;37886;53.174;6.368;2023-08-31T02:38:01;10.50;99.90
51839;DHT22;37886;53.174;6.368;2023-08-31T02:40:27;10.50;99.90
51839;DHT22;37886;53.174;6.368;2023-08-31T02:42:53;10.50;99.90
51839;DHT22;37886;53.174;6.368;2023-08-31T02:45:19;10.50;99.90
51839;DHT22;37886;53.174;6.368;2023-08-31T02:47:44;10.40;99.90
51839;DHT22;37886;53.174;6.368;2023-08-31T02:50:10;10.40;99.90
51839;DHT22;37886;53.174;6.368;2023-08-31T02:52:36;10.40;99.90
51839;DHT22;37886;53.174;6.368;2023-08-31T02:55:01;10.50;99.90
51839;DHT22;37886;53.174;6.368;2023-08-31T02:57:27;10.40;99.90
51839;DHT22;37886;53.174;6.368;2023-08-31T02:59:53;10.30;99.90
51839;DHT22;37886;53.174;6.368;2023-08-31T03:02:19;10.30;99.90
51839;DHT22;37886;53.174;6.368;2023-08-31T03:04:44;10.30;99.90
51839;DHT22;37886;53.174;6.368;2023-08-31T03:07:10;10.20;99.90
51839;DHT22;37886;53.174;6.368;2023-08-31T03:09:39;10.30;99.90
51839;DHT22;37886;53.174;6.368;2023-08-31T03:12:05;10.20;99.90
51839;DHT22;37886;53.174;6.368;2023-08-31T03:14:31;10.20;99.90
51839;DHT22;37886;53.174;6.368;2023-08-31T03:16:57;10.30;99.90
51839;DHT22;37886;53.174;6.368;2023-08-31T03:19:22;10.30;99.90
51839;DHT22;37886;53.174;6.368;2023-08-31T03:21:49;10.30;99.90
51839;DHT22;37886;53.174;6.368;2023-08-31T03:24:15;10.40;99.90
51839;DHT22;37886;53.174;6.368;2023-08-31T03:26:40;10.40;99.90
51839;DHT22;37886;53.174;6.368;2023-08-31T03:29:06;10.50;99.90
51839;DHT22;37886;53.174;6.368;2023-08-31T03:31:32;10.50;99.90
51839;DHT22;37886;53.174;6.368;2023-08-31T03:33:57;10.50;99.90
51839;DHT22;37886;53.174;6.368;2023-08-31T03:36:23;10.40;99.90
51839;DHT22;37886;53.174;6.368;2023-08-31T03:38:49;10.40;99.90
51839;DHT22;37886;53.174;6.368;2023-08-31T03:41:15;10.40;99.90
51839;DHT22;37886;53.174;6.368;2023-08-31T03:43:41;10.40;99.90
51839;DHT22;37886;53.174;6.368;2023-08-31T03:46:06;10.40;99.90
51839;DHT22;37886;53.174;6.368;2023-08-31T03:48:32;10.40;99.90
51839;DHT22;37886;53.174;6.368;2023-08-31T03:50:58;10.50;99.90
51839;DHT22;37886;53.174;6.368;2023-08-31T03:53:24;10.50;99.90
51839;DHT22;37886;53.174;6.368;2023-08-31T03:55:49;10.40;99.90
51839;DHT22;37886;53.174;6.368;2023-08-31T03:58:15;10.40;99.90
51839;DHT22;37886;53.174;6.368;2023-08-31T04:00:42;10.40;99.90
51839;DHT22;37886;53.174;6.368;2023-08-31T04:03:08;10.50;99.90
51839;DHT22;37886;53.174;6.368;2023-08-31T04:05:34;10.40;99.90
51839;DHT22;37886;53.174;6.368;2023-08-31T04:08:01;10.50;99.90
51839;DHT22;37886;53.174;6.368;2023-08-31T04:10:28;10.40;99.90
51839;DHT22;37886;53.174;6.368;2023-08-31T04:12:57;10.40;99.90
51839;DHT22;37886;53.174;6.368;2023-08-31T04:15:23;10.40;99.90
51839;DHT22;37886;53.174;6.368;2023-08-31T04:17:48;10.40;99.90
51839;DHT22;37886;53.174;6.368;2023-08-31T04:20:15;10.30;99.90
51839;DHT22;37886;53.174;6.368;2023-08-31T04:22:41;10.40;99.90
51839;DHT22;37886;53.174;6.368;2023-08-31T04:25:07;10.30;99.90
51839;DHT22;37886;53.174;6.368;2023-08-31T04:27:32;10.30;99.90
51839;DHT22;37886;53.174;6.368;2023-08-31T04:30:01;10.30;99.90
51839;DHT22;37886;53.174;6.368;2023-08-31T04:32:28;10.30;99.90
51839;DHT22;37886;53.174;6.368;2023-08-31T04:34:53;10.30;99.90
51839;DHT22;37886;53.174;6.368;2023-08-31T04:37:20;10.30;99.90
51839;DHT22;37886;53.174;6.368;2023-08-31T04:39:46;10.20;99.90
51839;DHT22;37886;53.174;6.368;2023-08-31T04:42:12;10.30;99.90
51839;DHT22;37886;53.174;6.368;2023-08-31T04:44:37;10.30;99.90
51839;DHT22;37886;53.174;6.368;2023-08-31T04:47:03;10.30;99.90
51839;DHT22;37886;53.174;6.368;2023-08-31T04:49:29;10.20;99.90
51839;DHT22;37886;53.174;6.368;2023-08-31T04:51:56;10.20;99.90
51839;DHT22;37886;53.174;6.368;2023-08-31T04:54:22;10.30;99.90
51839;DHT22;37886;53.174;6.368;2023-08-31T04:56:47;10.20;99.90
51839;DHT22;37886;53.174;6.368;2023-08-31T04:59:13;10.40;99.90
51839;DHT22;37886;53.174;6.368;2023-08-31T05:01:39;10.50;99.90
51839;DHT22;37886;53.174;6.368;2023-08-31T05:04:05;10.60;99.90
51839;DHT22;37886;53.174;6.368;2023-08-31T05:06:31;10.70;99.90
51839;DHT22;37886;53.174;6.368;2023-08-31T05:08:57;10.70;99.90
51839;DHT22;37886;53.174;6.368;2023-08-31T05:11:23;10.80;99.90
51839;DHT22;37886;53.174;6.368;2023-08-31T05:13:49;10.90;99.90
51839;DHT22;37886;53.174;6.368;2023-08-31T05:16:15;11.00;99.90
51839;DHT22;37886;53.174;6.368;2023-08-31T05:18:41;11.10;99.90
51839;DHT22;37886;53.174;6.368;2023-08-31T05:21:07;11.10;99.90
51839;DHT22;37886;53.174;6.368;2023-08-31T05:23:32;11.20;99.90
51839;DHT22;37886;53.174;6.368;2023-08-31T05:25:58;11.30;99.90
51839;DHT22;37886;53.174;6.368;2023-08-31T05:28:24;11.30;99.90
51839;DHT22;37886;53.174;6.368;2023-08-31T05:30:51;11.40;99.90
51839;DHT22;37886;53.174;6.368;2023-08-31T05:33:20;11.50;99.90
51839;DHT22;37886;53.174;6.368;2023-08-31T05:35:48;11.60;99.90
51839;DHT22;37886;53.174;6.368;2023-08-31T05:38:13;11.60;99.90
51839;DHT22;37886;53.174;6.368;2023-08-31T05:40:39;11.60;99.90
51839;DHT22;37886;53.174;6.368;2023-08-31T05:43:11;11.70;99.90
51839;DHT22;37886;53.174;6.368;2023-08-31T05:45:36;11.80;99.90
51839;DHT22;37886;53.174;6.368;2023-08-31T05:48:02;12.00;99.90
51839;DHT22;37886;53.174;6.368;2023-08-31T05:50:29;12.10;99.90
51839;DHT22;37886;53.174;6.368;2023-08-31T05:52:55;12.30;99.90
51839;DHT22;37886;53.174;6.368;2023-08-31T05:55:21;12.50;99.90
51839;DHT22;37886;53.174;6.368;2023-08-31T05:57:47;12.50;99.90
51839;DHT22;37886;53.174;6.368;2023-08-31T06:00:13;12.60;99.90
51839;DHT22;37886;53.174;6.368;2023-08-31T06:02:38;12.80;99.90
51839;DHT22;37886;53.174;6.368;2023-08-31T06:05:04;12.80;99.90
51839;DHT22;37886;53.174;6.368;2023-08-31T06:07:31;12.80;99.90
51839;DHT22;37886;53.174;6.368;2023-08-31T06:09:57;12.90;99.90
51839;DHT22;37886;53.174;6.368;2023-08-31T06:12:23;12.90;99.90
51839;DHT22;37886;53.174;6.368;2023-08-31T06:14:49;13.00;99.90
51839;DHT22;37886;53.174;6.368;2023-08-31T06:17:14;13.00;99.90
51839;DHT22;37886;53.174;6.368;2023-08-31T06:19:41;13.10;99.90
51839;DHT22;37886;53.174;6.368;2023-08-31T06:22:07;13.20;99.90
51839;DHT22;37886;53.174;6.368;2023-08-31T06:24:33;13.20;99.90
51839;DHT22;37886;53.174;6.368;2023-08-31T06:26:59;13.30;99.90
51839;DHT22;37886;53.174;6.368;2023-08-31T06:29:26;13.30;99.90
51839;DHT22;37886;53.174;6.368;2023-08-31T06:31:51;13.40;99.90
51839;DHT22;37886;53.174;6.368;2023-08-31T06:34:17;13.40;99.90
51839;DHT22;37886;53.174;6.368;2023-08-31T06:36:44;13.50;99.90
51839;DHT22;37886;53.174;6.368;2023-08-31T06:39:10;13.60;99.90
51839;DHT22;37886;53.174;6.368;2023-08-31T06:41:36;13.60;99.90
51839;DHT22;37886;53.174;6.368;2023-08-31T06:44:02;13.70;99.90
51839;DHT22;37886;53.174;6.368;2023-08-31T06:46:28;13.70;99.90
51839;DHT22;37886;53.174;6.368;2023-08-31T06:48:54;13.80;99.90
51839;DHT22;37886;53.174;6.368;2023-08-31T06:51:20;13.80;99.90
51839;DHT22;37886;53.174;6.368;2023-08-31T06:53:46;13.90;99.90
51839;DHT22;37886;53.174;6.368;2023-08-31T06:56:12;14.00;99.90
51839;DHT22;37886;53.174;6.368;2023-08-31T06:58:37;14.00;99.90
51839;DHT22;37886;53.174;6.368;2023-08-31T07:01:06;14.10;99.90
51839;DHT22;37886;53.174;6.368;2023-08-31T07:03:31;14.10;99.90
51839;DHT22;37886;53.174;6.368;2023-08-31T07:05:57;14.10;99.90
51839;DHT22;37886;53.174;6.368;2023-08-31T07:08:23;14.10;99.90
51839;DHT22;37886;53.174;6.368;2023-08-31T07:10:52;14.30;99.90
51839;DHT22;37886;53.174;6.368;2023-08-31T07:13:17;14.30;99.90
51839;DHT22;37886;53.174;6.368;2023-08-31T07:15:43;14.40;99.90
51839;DHT22;37886;53.174;6.368;2023-08-31T07:18:09;14.60;99.90
51839;DHT22;37886;53.174;6.368;2023-08-31T07:20:34;14.60;99.90
51839;DHT22;37886;53.174;6.368;2023-08-31T07:23:00;14.60;99.90
51839;DHT22;37886;53.174;6.368;2023-08-31T07:25:26;14.70;99.90
51839;DHT22;37886;53.174;6.368;2023-08-31T07:27:52;14.80;99.90
51839;DHT22;37886;53.174;6.368;2023-08-31T07:30:18;14.90;99.90
51839;DHT22;37886;53.174;6.368;2023-08-31T07:32:44;15.00;99.90
51839;DHT22;37886;53.174;6.368;2023-08-31T07:35:10;15.10;99.90
51839;DHT22;37886;53.174;6.368;2023-08-31T07:37:35;15.20;99.90
51839;DHT22;37886;53.174;6.368;2023-08-31T07:40:03;15.20;99.90
51839;DHT22;37886;53.174;6.368;2023-08-31T07:42:34;15.30;99.90
51839;DHT22;37886;53.174;6.368;2023-08-31T07:45:00;15.40;99.90
51839;DHT22;37886;53.174;6.368;2023-08-31T07:47:25;15.40;99.90
51839;DHT22;37886;53.174;6.368;2023-08-31T07:49:51;15.60;99.90
51839;DHT22;37886;53.174;6.368;2023-08-31T07:52:16;15.70;99.90
51839;DHT22;37886;53.174;6.368;2023-08-31T07:54:42;15.70;99.90
51839;DHT22;37886;53.174;6.368;2023-08-31T07:57:08;15.80;99.90
51839;DHT22;37886;53.174;6.368;2023-08-31T07:59:33;15.90;99.90
51839;DHT22;37886;53.174;6.368;2023-08-31T08:01:59;16.00;99.90
51839;DHT22;37886;53.174;6.368;2023-08-31T08:04:25;16.10;99.90
51839;DHT22;37886;53.174;6.368;2023-08-31T08:06:52;16.20;99.90
51839;DHT22;37886;53.174;6.368;2023-08-31T08:09:18;16.20;99.90
51839;DHT22;37886;53.174;6.368;2023-08-31T08:11:43;16.30;99.90
51839;DHT22;37886;53.174;6.368;2023-08-31T08:14:09;16.30;99.90
51839;DHT22;37886;53.174;6.368;2023-08-31T08:16:35;16.40;99.90
51839;DHT22;37886;53.174;6.368;2023-08-31T08:19:01;16.50;99.90
51839;DHT22;37886;53.174;6.368;2023-08-31T08:21:26;16.70;99.90
51839;DHT22;37886;53.174;6.368;2023-08-31T08:23:52;16.70;99.90
51839;DHT22;37886;53.174;6.368;2023-08-31T08:26:18;16.80;99.90
51839;DHT22;37886;53.174;6.368;2023-08-31T08:28:44;16.90;99.90
51839;DHT22;37886;53.174;6.368;2023-08-31T08:31:10;17.10;99.90
51839;DHT22;37886;53.174;6.368;2023-08-31T08:33:35;17.10;99.90
51839;DHT22;37886;53.174;6.368;2023-08-31T08:36:01;17.20;99.90
51839;DHT22;37886;53.174;6.368;2023-08-31T08:38:27;17.30;99.90
51839;DHT22;37886;53.174;6.368;2023-08-31T08:40:53;17.40;99.90
51839;DHT22;37886;53.174;6.368;2023-08-31T08:43:24;17.60;99.90
51839;DHT22;37886;53.174;6.368;2023-08-31T08:45:51;17.80;99.90
51839;DHT22;37886;53.174;6.368;2023-08-31T08:48:18;18.20;99.90
51839;DHT22;37886;53.174;6.368;2023-08-31T08:50:45;18.40;99.90
51839;DHT22;37886;53.174;6.368;2023-08-31T08:53:11;18.30;99.90
51839;DHT22;37886;53.174;6.368;2023-08-31T08:55:39;17.20;99.90
51839;DHT22;37886;53.174;6.368;2023-08-31T08:58:06;16.30;99.90
51839;DHT22;37886;53.174;6.368;2023-08-31T09:00:32;15.70;99.90
51839;DHT22;37886;53.174;6.368;2023-08-31T09:03:01;15.30;99.90
51839;DHT22;37886;53.174;6.368;2023-08-31T09:05:32;15.10;99.90
51839;DHT22;37886;53.174;6.368;2023-08-31T09:08:08;14.80;99.90
51839;DHT22;37886;53.174;6.368;2023-08-31T09:10:42;15.00;99.90
51839;DHT22;37886;53.174;6.368;2023-08-31T09:13:13;15.20;99.90
51839;DHT22;37886;53.174;6.368;2023-08-31T09:15:44;15.30;99.90
51839;DHT22;37886;53.174;6.368;2023-08-31T09:20:51;16.10;99.90
51839;DHT22;37886;53.174;6.368;2023-08-31T09:23:17;16.40;99.90
51839;DHT22;37886;53.174;6.368;2023-08-31T09:25:44;16.70;99.90
51839;DHT22;37886;53.174;6.368;2023-08-31T09:28:12;16.70;99.90
51839;DHT22;37886;53.174;6.368;2023-08-31T09:30:38;16.60;99.90
51839;DHT22;37886;53.174;6.368;2023-08-31T09:33:07;16.60;99.90
51839;DHT22;37886;53.174;6.368;2023-08-31T09:35:57;16.70;99.90
51839;DHT22;37886;53.174;6.368;2023-08-31T09:38:20;16.70;99.90
51839;DHT22;37886;53.174;6.368;2023-08-31T09:40:46;16.90;99.90
51839;DHT22;37886;53.174;6.368;2023-08-31T09:43:18;17.20;99.90
51839;DHT22;37886;53.174;6.368;2023-08-31T09:45:47;17.60;99.90
51839;DHT22;37886;53.174;6.368;2023-08-31T09:48:14;17.50;99.90
51839;DHT22;37886;53.174;6.368;2023-08-31T09:50:45;16.90;99.90
51839;DHT22;37886;53.174;6.368;2023-08-31T09:53:11;16.30;99.90
51839;DHT22;37886;53.174;6.368;2023-08-31T09:55:39;16.00;99.90
51839;DHT22;37886;53.174;6.368;2023-08-31T09:58:07;15.80;99.90
51839;DHT22;37886;53.174;6.368;2023-08-31T10:00:36;15.70;99.90
51839;DHT22;37886;53.174;6.368;2023-08-31T10:03:05;15.70;99.90
51839;DHT22;37886;53.174;6.368;2023-08-31T10:05:31;15.70;99.90
51839;DHT22;37886;53.174;6.368;2023-08-31T10:07:58;15.70;99.90
51839;DHT22;37886;53.174;6.368;2023-08-31T10:10:25;16.00;99.90
51839;DHT22;37886;53.174;6.368;2023-08-31T10:12:51;16.10;99.90
51839;DHT22;37886;53.174;6.368;2023-08-31T10:15:18;16.40;99.90
51839;DHT22;37886;53.174;6.368;2023-08-31T10:17:45;16.60;99.90
51839;DHT22;37886;53.174;6.368;2023-08-31T10:20:16;16.80;99.90
51839;DHT22;37886;53.174;6.368;2023-08-31T10:22:42;16.90;99.90
51839;DHT22;37886;53.174;6.368;2023-08-31T10:25:09;17.10;99.90
51839;DHT22;37886;53.174;6.368;2023-08-31T10:27:39;17.30;99.90
51839;DHT22;37886;53.174;6.368;2023-08-31T10:41:01;17.00;99.90
51839;DHT22;37886;53.174;6.368;2023-08-31T10:46:39;16.70;99.90
51839;DHT22;37886;53.174;6.368;2023-08-31T10:56:33;18.00;99.90
51839;DHT22;37886;53.174;6.368;2023-08-31T10:59:00;18.30;99.90
51839;DHT22;37886;53.174;6.368;2023-08-31T11:01:55;18.50;99.90
51839;DHT22;37886;53.174;6.368;2023-08-31T11:04:22;18.80;99.90
51839;DHT22;37886;53.174;6.368;2023-08-31T11:06:48;19.10;99.90
51839;DHT22;37886;53.174;6.368;2023-08-31T11:09:21;19.40;99.90
51839;DHT22;37886;53.174;6.368;2023-08-31T11:11:47;19.60;99.90
51839;DHT22;37886;53.174;6.368;2023-08-31T11:14:16;19.40;99.90
51839;DHT22;37886;53.174;6.368;2023-08-31T11:16:43;19.00;99.90
51839;DHT22;37886;53.174;6.368;2023-08-31T11:19:09;18.80;99.90
51839;DHT22;37886;53.174;6.368;2023-08-31T11:21:37;18.30;99.90
51839;DHT22;37886;53.174;6.368;2023-08-31T11:24:03;18.00;99.90
51839;DHT22;37886;53.174;6.368;2023-08-31T11:26:31;17.80;99.90
51839;DHT22;37886;53.174;6.368;2023-08-31T11:28:57;17.90;99.90
51839;DHT22;37886;53.174;6.368;2023-08-31T11:31:24;18.70;99.90
51839;DHT22;37886;53.174;6.368;2023-08-31T11:33:49;19.30;99.90
51839;DHT22;37886;53.174;6.368;2023-08-31T11:36:15;20.20;99.90
51839;DHT22;37886;53.174;6.368;2023-08-31T11:38:44;20.40;99.90
51839;DHT22;37886;53.174;6.368;2023-08-31T11:41:10;20.20;99.90
51839;DHT22;37886;53.174;6.368;2023-08-31T11:43:36;20.10;99.90
51839;DHT22;37886;53.174;6.368;2023-08-31T11:46:03;19.70;99.90
51839;DHT22;37886;53.174;6.368;2023-08-31T11:48:30;19.40;99.90
51839;DHT22;37886;53.174;6.368;2023-08-31T11:50:57;19.20;99.90
51839;DHT22;37886;53.174;6.368;2023-08-31T11:53:24;19.00;99.90
51839;DHT22;37886;53.174;6.368;2023-08-31T11:55:50;18.70;99.90
51839;DHT22;37886;53.174;6.368;2023-08-31T11:58:16;18.50;99.90
51839;DHT22;37886;53.174;6.368;2023-08-31T12:00:43;18.30;99.90
51839;DHT22;37886;53.174;6.368;2023-08-31T12:03:09;19.10;99.90
51839;DHT22;37886;53.174;6.368;2023-08-31T12:05:48;20.20;99.90
51839;DHT22;37886;53.174;6.368;2023-08-31T12:08:14;20.90;99.90
51839;DHT22;37886;53.174;6.368;2023-08-31T12:10:41;21.60;99.90
51839;DHT22;37886;53.174;6.368;2023-08-31T12:13:11;21.70;99.90
51839;DHT22;37886;53.174;6.368;2023-08-31T12:15:39;22.50;99.90
51839;DHT22;37886;53.174;6.368;2023-08-31T12:18:12;22.00;99.90
51839;DHT22;37886;53.174;6.368;2023-08-31T12:20:50;21.20;99.90
51839;DHT22;37886;53.174;6.368;2023-08-31T12:23:18;21.50;99.90
51839;DHT22;37886;53.174;6.368;2023-08-31T12:25:51;21.30;99.90
51839;DHT22;37886;53.174;6.368;2023-08-31T12:28:18;20.50;99.90
51839;DHT22;37886;53.174;6.368;2023-08-31T12:30:53;19.90;99.90
51839;DHT22;37886;53.174;6.368;2023-08-31T12:33:20;19.50;99.90
51839;DHT22;37886;53.174;6.368;2023-08-31T12:35:46;19.90;99.90
51839;DHT22;37886;53.174;6.368;2023-08-31T12:38:13;20.90;99.90
51839;DHT22;37886;53.174;6.368;2023-08-31T12:40:39;21.40;99.90
51839;DHT22;37886;53.174;6.368;2023-08-31T12:43:06;21.90;99.90
51839;DHT22;37886;53.174;6.368;2023-08-31T12:45:32;21.80;99.90
51839;DHT22;37886;53.174;6.368;2023-08-31T12:47:59;21.40;99.90
51839;DHT22;37886;53.174;6.368;2023-08-31T12:50:25;21.40;99.90
51839;DHT22;37886;53.174;6.368;2023-08-31T12:52:50;20.50;99.90
51839;DHT22;37886;53.174;6.368;2023-08-31T12:55:16;19.90;99.90
51839;DHT22;37886;53.174;6.368;2023-08-31T12:57:43;20.10;99.90
51839;DHT22;37886;53.174;6.368;2023-08-31T13:00:10;21.20;99.90
51839;DHT22;37886;53.174;6.368;2023-08-31T13:02:40;21.90;99.90
51839;DHT22;37886;53.174;6.368;2023-08-31T13:05:07;22.40;99.90
51839;DHT22;37886;53.174;6.368;2023-08-31T13:07:36;23.10;99.90
51839;DHT22;37886;53.174;6.368;2023-08-31T13:10:02;22.80;99.90
51839;DHT22;37886;53.174;6.368;2023-08-31T13:12:32;22.00;99.90
51839;DHT22;37886;53.174;6.368;2023-08-31T13:14:59;21.50;99.90
51839;DHT22;37886;53.174;6.368;2023-08-31T13:17:25;21.60;99.90
51839;DHT22;37886;53.174;6.368;2023-08-31T13:19:56;20.90;99.90
51839;DHT22;37886;53.174;6.368;2023-08-31T13:22:22;19.90;99.90
51839;DHT22;37886;53.174;6.368;2023-08-31T13:24:49;19.20;99.90
51839;DHT22;37886;53.174;6.368;2023-08-31T13:27:15;18.80;99.90
51839;DHT22;37886;53.174;6.368;2023-08-31T13:29:41;18.70;99.90
51839;DHT22;37886;53.174;6.368;2023-08-31T13:32:07;18.50;99.90
51839;DHT22;37886;53.174;6.368;2023-08-31T13:34:34;18.40;99.90
51839;DHT22;37886;53.174;6.368;2023-08-31T13:37:00;18.30;99.90
51839;DHT22;37886;53.174;6.368;2023-08-31T13:39:29;19.10;99.90
51839;DHT22;37886;53.174;6.368;2023-08-31T13:41:55;19.90;99.90
51839;DHT22;37886;53.174;6.368;2023-08-31T13:44:21;20.60;99.90
51839;DHT22;37886;53.174;6.368;2023-08-31T13:46:48;20.70;99.90
51839;DHT22;37886;53.174;6.368;2023-08-31T13:49:14;20.30;99.90
51839;DHT22;37886;53.174;6.368;2023-08-31T13:51:40;19.60;99.90
51839;DHT22;37886;53.174;6.368;2023-08-31T13:54:06;19.50;99.90
51839;DHT22;37886;53.174;6.368;2023-08-31T13:56:35;19.30;99.90
51839;DHT22;37886;53.174;6.368;2023-08-31T13:59:01;19.20;99.90
51839;DHT22;37886;53.174;6.368;2023-08-31T14:01:27;19.40;99.90
51839;DHT22;37886;53.174;6.368;2023-08-31T14:03:53;20.40;99.90
51839;DHT22;37886;53.174;6.368;2023-08-31T14:06:18;21.90;99.90
51839;DHT22;37886;53.174;6.368;2023-08-31T14:08:44;21.50;99.90
51839;DHT22;37886;53.174;6.368;2023-08-31T14:11:10;20.80;99.90
51839;DHT22;37886;53.174;6.368;2023-08-31T14:13:36;20.20;99.90
51839;DHT22;37886;53.174;6.368;2023-08-31T14:16:01;19.80;99.90
51839;DHT22;37886;53.174;6.368;2023-08-31T14:18:28;19.50;99.90
51839;DHT22;37886;53.174;6.368;2023-08-31T14:20:57;19.20;99.90
51839;DHT22;37886;53.174;6.368;2023-08-31T14:23:27;19.40;99.90
51839;DHT22;37886;53.174;6.368;2023-08-31T14:25:52;20.60;99.90
51839;DHT22;37886;53.174;6.368;2023-08-31T14:28:18;20.90;99.90
51839;DHT22;37886;53.174;6.368;2023-08-31T14:30:44;21.10;99.90
51839;DHT22;37886;53.174;6.368;2023-08-31T14:33:09;20.50;99.90
51839;DHT22;37886;53.174;6.368;2023-08-31T14:35:38;20.10;99.90
51839;DHT22;37886;53.174;6.368;2023-08-31T14:38:05;19.70;99.90
51839;DHT22;37886;53.174;6.368;2023-08-31T14:40:31;19.70;99.90
51839;DHT22;37886;53.174;6.368;2023-08-31T14:42:59;20.50;99.90
51839;DHT22;37886;53.174;6.368;2023-08-31T14:45:25;22.10;99.90
51839;DHT22;37886;53.174;6.368;2023-08-31T14:47:51;23.10;99.90
51839;DHT22;37886;53.174;6.368;2023-08-31T14:50:17;21.50;99.90
51839;DHT22;37886;53.174;6.368;2023-08-31T14:52:42;21.10;99.90
51839;DHT22;37886;53.174;6.368;2023-08-31T14:55:08;21.50;99.90
51839;DHT22;37886;53.174;6.368;2023-08-31T14:57:34;22.90;99.90
51839;DHT22;37886;53.174;6.368;2023-08-31T14:59:59;23.40;99.90
51839;DHT22;37886;53.174;6.368;2023-08-31T15:02:25;22.90;99.90
51839;DHT22;37886;53.174;6.368;2023-08-31T15:04:51;23.60;99.90
51839;DHT22;37886;53.174;6.368;2023-08-31T15:07:17;23.90;99.90
51839;DHT22;37886;53.174;6.368;2023-08-31T15:09:44;24.40;99.90
51839;DHT22;37886;53.174;6.368;2023-08-31T15:12:10;24.90;99.90
51839;DHT22;37886;53.174;6.368;2023-08-31T15:14:37;25.20;99.90
51839;DHT22;37886;53.174;6.368;2023-08-31T15:17:04;25.90;99.90
51839;DHT22;37886;53.174;6.368;2023-08-31T15:19:30;25.50;99.90
51839;DHT22;37886;53.174;6.368;2023-08-31T15:21:58;24.80;99.90
51839;DHT22;37886;53.174;6.368;2023-08-31T15:24:24;24.90;99.90
51839;DHT22;37886;53.174;6.368;2023-08-31T15:26:49;25.20;99.90
51839;DHT22;37886;53.174;6.368;2023-08-31T15:29:15;25.30;99.90
51839;DHT22;37886;53.174;6.368;2023-08-31T15:31:41;24.80;99.90
51839;DHT22;37886;53.174;6.368;2023-08-31T15:34:10;23.90;99.90
51839;DHT22;37886;53.174;6.368;2023-08-31T15:36:35;22.40;99.90
51839;DHT22;37886;53.174;6.368;2023-08-31T15:39:01;21.50;99.90
51839;DHT22;37886;53.174;6.368;2023-08-31T15:41:28;20.70;99.90
51839;DHT22;37886;53.174;6.368;2023-08-31T15:43:59;20.60;99.90
51839;DHT22;37886;53.174;6.368;2023-08-31T15:46:26;20.10;99.90
51839;DHT22;37886;53.174;6.368;2023-08-31T15:48:52;20.30;99.90
51839;DHT22;37886;53.174;6.368;2023-08-31T15:51:18;20.00;99.90
51839;DHT22;37886;53.174;6.368;2023-08-31T15:53:43;19.50;99.90
51839;DHT22;37886;53.174;6.368;2023-08-31T15:56:09;19.10;99.90
51839;DHT22;37886;53.174;6.368;2023-08-31T15:58:35;18.90;99.90
51839;DHT22;37886;53.174;6.368;2023-08-31T16:01:01;18.80;99.90